Time;durP1;ratioP1;P1;durP2;ratioP2;P2;SDS_P1;SDS_P2;PMS_P1;PMS_P2;Temp;Humidity;BMP_temperature;BMP_pressure;BME280_temperature;BME280_humidity;BME280_pressure;Samples;Min_cycle;Max_cycle;Signal;HPM_P1;HPM_P2
2023/05/29 00:05:53;;;;;;;11.55;4.35;;;;;;;11.89;61.09;99846.69;5860599;24;20026;-95
2023/05/29 00:30:14;;;;;;;15.93;4.03;;;;;;;11.56;61.09;99846.81;5845702;24;20079;-96
2023/05/29 00:32:48;;;;;;;12.52;3.78;;;;;;;11.77;61.67;99877.31;5732017;24;20023;-96
2023/05/29 00:36:08;;;;;;;12.25;3.90;;;;;;;11.92;61.46;99904.41;5732020;24;20023;-96
2023/05/29 00:38:37;;;;;;;17.50;4.43;;;;;;;11.52;61.42;99838.41;5711242;24;20543;-96
2023/05/29 00:41:06;;;;;;;20.85;4.45;;;;;;;11.66;60.83;99857.56;5740732;24;20022;-94
2023/05/29 00:46:28;;;;;;;14.00;3.80;;;;;;;11.85;59.89;99864.84;5834828;24;20069;-96
2023/05/29 00:49:08;;;;;;;18.10;4.63;;;;;;;11.63;60.66;99844.47;5856626;24;20029;-96
2023/05/29 00:51:39;;;;;;;22.83;4.00;;;;;;;11.92;60.09;99878.94;5861661;24;20046;-93
2023/05/29 00:54:07;;;;;;;18.45;4.00;;;;;;;11.84;60.78;99872.25;5882045;24;20041;-95
2023/05/29 00:56:44;;;;;;;19.02;3.95;;;;;;;11.82;60.80;99877.22;5883939;24;20006;-94
2023/05/29 00:59:29;;;;;;;12.48;4.20;;;;;;;11.84;59.86;99885.13;5841559;24;20022;-94
2023/05/29 01:02:02;;;;;;;14.45;4.00;;;;;;;11.99;58.78;99896.59;5856996;24;20033;-93
2023/05/29 01:04:37;;;;;;;12.23;3.90;;;;;;;11.95;59.30;99878.31;5879892;24;20061;-93
2023/05/29 01:08:06;;;;;;;;;;;;;;;;;;;;;
2023/05/29 01:33:57;;;;;;;10.00;3.65;;;;;;;11.88;56.96;99845.84;6198544;22;20005;-94
2023/05/29 01:36:36;;;;;;;;;;;;;;;;;;;;;
2023/05/29 01:39:15;;;;;;;13.57;3.67;;;;;;;11.98;57.05;99850.28;6143919;23;20017;-96
2023/05/29 01:42:05;;;;;;;11.80;3.67;;;;;;;12.42;57.07;99917.28;6134931;23;20456;-95
2023/05/29 01:45:06;;;;;;;8.02;3.83;;;;;;;12.27;56.78;99895.69;6087976;23;20104;-94
2023/05/29 01:47:53;;;;;;;11.02;3.75;;;;;;;12.28;56.83;99898.09;6081810;23;20479;-94
2023/05/29 01:50:20;;;;;;;8.02;3.97;;;;;;;12.25;58.02;99887.78;6083325;23;20014;-95
2023/05/29 01:52:46;;;;;;;12.70;3.70;;;;;;;12.50;57.23;99927.50;6086794;23;20033;-92
2023/05/29 01:55:13;;;;;;;22.07;4.23;;;;;;;12.39;57.81;99910.47;6105829;23;20022;-93
2023/05/29 01:57:40;;;;;;;10.10;4.35;;;;;;;12.22;57.35;99888.41;6082217;23;20025;-93
2023/05/29 02:00:11;;;;;;;15.88;4.20;;;;;;;12.08;57.71;99857.47;6107968;23;20077;-95
2023/05/29 02:02:43;;;;;;;16.83;4.18;;;;;;;12.18;58.00;99873.69;6108278;23;20526;-93
2023/05/29 02:05:09;;;;;;;15.48;3.90;;;;;;;12.34;57.85;99902.34;6083207;23;20022;-95
2023/05/29 02:07:38;;;;;;;12.48;4.45;;;;;;;12.42;57.79;99909.84;6084232;23;20368;-93
2023/05/29 02:10:10;;;;;;;10.50;4.25;;;;;;;12.35;57.63;99889.44;6085196;23;20073;-96
2023/05/29 02:12:39;;;;;;;10.38;3.95;;;;;;;12.33;57.84;99880.75;6083379;23;20021;-93
2023/05/29 02:15:07;;;;;;;15.27;4.03;;;;;;;12.49;57.87;99908.63;6084397;23;20013;-95
2023/05/29 02:17:34;;;;;;;10.30;4.20;;;;;;;12.52;57.77;99903.31;6083360;23;20041;-93
2023/05/29 02:20:04;;;;;;;20.65;4.50;;;;;;;12.32;58.63;99873.66;6081187;23;20022;-94
2023/05/29 02:22:30;;;;;;;11.48;4.13;;;;;;;12.49;58.12;99886.69;6081621;23;20523;-96
2023/05/29 02:25:09;;;;;;;12.05;4.43;;;;;;;12.60;57.31;99915.47;6082743;23;20021;-95
2023/05/29 02:27:41;;;;;;;12.63;4.40;;;;;;;12.33;57.53;99854.13;6087073;23;20029;-94
2023/05/29 02:30:12;;;;;;;12.40;3.88;;;;;;;12.35;57.63;99854.66;6109251;23;20032;-94
2023/05/29 02:32:49;;;;;;;12.07;4.47;;;;;;;12.71;57.75;99900.38;6108041;23;20045;-93
2023/05/29 02:35:20;;;;;;;13.82;3.78;;;;;;;12.73;56.14;99897.31;6084779;23;20010;-92
2023/05/29 02:37:53;;;;;;;14.90;3.28;;;;;;;12.68;55.56;99877.13;6105691;23;20156;-96
2023/05/29 02:40:42;;;;;;;11.35;3.80;;;;;;;12.87;55.39;99895.31;6082760;23;20038;-93
2023/05/29 02:43:13;;;;;;;12.82;4.35;;;;;;;13.04;55.86;99909.13;6083323;23;20030;-96
2023/05/29 02:45:45;;;;;;;11.60;3.63;;;;;;;12.90;55.16;99881.75;6139252;23;20033;-92
2023/05/29 02:48:20;;;;;;;17.00;4.05;;;;;;;13.29;55.08;99937.06;6091039;23;20092;-96
2023/05/29 02:50:49;;;;;;;11.23;3.33;;;;;;;13.20;55.74;99919.69;6119151;23;20021;-92
2023/05/29 02:54:04;;;;;;;;;;;;;;;;;;;;;
2023/05/29 02:57:42;;;;;;;;;;;;;;;;;;;;;
2023/05/29 03:01:41;;;;;;;11.38;3.40;;;;;;;13.26;54.02;99902.81;6052481;23;20545;-94
2023/05/29 03:04:30;;;;;;;11.88;3.42;;;;;;;13.21;54.62;99891.94;6073592;23;20022;-93
2023/05/29 03:07:35;;;;;;;;;;;;;;;;;;;;;
2023/05/29 03:53:31;;;;;;;14.88;3.90;;;;;;;14.42;51.38;99937.34;6003863;23;20059;-92
2023/05/29 03:57:17;;;;;;;;;;;;;;;;;;;;;
2023/05/29 04:07:22;;;;;;;11.93;4.15;;;;;;;14.99;49.36;99961.94;6290940;22;20028;-95
2023/05/29 04:10:09;;;;;;;10.13;3.55;;;;;;;14.98;49.12;99947.38;6145193;23;20063;-94
2023/05/29 04:12:35;;;;;;;8.30;3.38;;;;;;;15.07;49.88;99955.63;6091314;23;20013;-94
2023/05/29 04:15:02;;;;;;;9.55;3.88;;;;;;;15.04;50.14;99932.28;6114156;23;20013;-94
2023/05/29 04:17:30;;;;;;;;;;;;;;;15.54;47.63;99990.66;6092575;23;19997;-92
2023/05/29 04:19:58;;;;;;;15.70;3.78;;;;;;;15.34;48.03;99940.63;6090317;23;19916;-91
2023/05/29 04:22:27;;;;;;;9.80;3.58;;;;;;;15.49;46.95;99934.56;6091099;23;20022;-94
2023/05/29 04:24:59;;;;;;;20.45;4.07;;;;;;;15.97;47.22;99984.97;6115535;23;20325;-93
2023/05/29 04:27:25;;;;;;;19.88;3.33;;;;;;;15.83;46.43;99935.59;6115568;23;20439;-92
2023/05/29 04:29:53;;;;;;;;;;;;;;;16.30;45.80;99995.34;6088321;23;20518;-91
2023/05/29 04:32:19;;;;;;;18.33;3.80;;;;;;;16.08;47.36;99936.56;6138819;23;19916;-91
2023/05/29 04:34:49;;;;;;;9.40;3.30;;;;;;;16.13;42.88;99952.91;6084610;23;20022;-94
2023/05/29 04:37:17;;;;;;;16.67;3.42;;;;;;;16.46;43.27;100004.63;6132797;23;20018;-91
2023/05/29 04:40:19;;;;;;;;;;;;;;;;;;;;;
2023/05/29 04:42:52;;;;;;;11.27;3.42;;;;;;;16.40;41.84;99968.16;6137598;23;20100;-95
2023/05/29 04:45:20;;;;;;;8.95;4.05;;;;;;;16.59;40.58;99986.19;6091397;23;20056;-94
2023/05/29 04:48:08;;;;;;;18.70;3.55;;;;;;;16.47;38.73;99962.09;6117517;23;20309;-95
2023/05/29 04:50:36;;;;;;;12.93;3.25;;;;;;;16.38;40.20;99948.34;6090858;23;20076;-95
2023/05/29 04:53:08;;;;;;;10.15;3.13;;;;;;;16.65;39.02;99982.06;6115944;23;20004;-95
2023/05/29 04:55:41;;;;;;;15.32;3.25;;;;;;;16.55;40.01;99969.47;6092680;23;20014;-95
2023/05/29 04:58:07;;;;;;;18.25;3.33;;;;;;;16.64;40.08;99970.22;6089171;23;20068;-94
2023/05/29 05:00:34;;;;;;;13.00;3.20;;;;;;;16.61;40.16;99956.28;6086358;23;20018;-92
2023/05/29 05:03:00;;;;;;;11.82;3.00;;;;;;;16.70;39.84;99961.75;6113591;23;20511;-93
2023/05/29 05:05:26;;;;;;;16.43;4.03;;;;;;;17.02;40.14;99987.78;6115010;23;20017;-84
2023/05/29 05:07:57;;;;;;;6.55;2.90;;;;;;;17.06;36.33;99991.50;6137825;23;20043;-93
2023/05/29 05:10:49;;;;;;;13.13;2.80;;;;;;;17.10;36.82;99995.19;6092525;23;20089;-91
2023/05/29 05:14:02;;;;;;;9.63;3.22;;;;;;;16.86;36.94;99966.34;6052819;23;20029;-92
2023/05/29 05:16:29;;;;;;;10.88;2.70;;;;;;;17.25;35.82;100016.66;6067630;23;20023;-94
2023/05/29 05:18:56;;;;;;;12.73;3.05;;;;;;;17.13;35.81;99984.25;6045695;23;20042;-92
2023/05/29 05:21:46;;;;;;;11.85;3.13;;;;;;;17.19;36.56;99982.09;6027105;23;20018;-91
2023/05/29 05:24:16;;;;;;;8.07;3.10;;;;;;;17.38;36.69;99998.97;6024227;23;20026;-92
2023/05/29 05:26:48;;;;;;;19.05;4.18;;;;;;;17.29;36.20;99978.09;6066701;23;20090;-90
2023/05/29 05:32:45;;;;;;;;;;;;;;;17.60;34.41;100014.31;6156741;23;20533;-90
2023/05/29 05:35:36;;;;;;;7.05;3.05;;;;;;;17.42;33.07;99982.50;6172771;23;19943;-92
2023/05/29 05:38:17;;;;;;;9.07;2.50;;;;;;;17.42;33.39;99990.81;6181685;23;20021;-91
2023/05/29 05:41:18;;;;;;;7.75;2.58;;;;;;;17.53;32.39;100005.78;6134260;23;20028;-91
2023/05/29 05:43:44;;;;;;;21.02;3.42;;;;;;;17.47;33.05;99985.03;6107708;23;20025;-90
2023/05/29 05:46:40;;;;;;;11.77;3.08;;;;;;;17.46;33.29;99966.03;6153210;23;20071;-86
2023/05/29 05:49:06;;;;;;;10.98;3.30;;;;;;;17.77;35.67;99987.63;6179626;23;20079;-87
2023/05/29 05:51:32;;;;;;;30.17;4.03;;;;;;;18.06;37.93;100004.00;6152363;23;20345;-85
2023/05/29 05:53:58;;;;;;;10.80;3.03;;;;;;;18.32;35.72;100022.22;6180376;23;20115;-84
2023/05/29 05:56:26;;;;;;;18.77;3.03;;;;;;;18.15;31.08;99992.84;6154504;23;20404;-85
2023/05/29 05:58:52;;;;;;;26.48;4.10;;;;;;;18.40;33.99;100023.25;6180993;23;20023;-88
2023/05/29 06:01:27;;;;;;;64.72;5.25;;;;;;;18.30;34.80;99986.56;6157470;23;20021;-91
2023/05/29 06:03:56;;;;;;;49.50;4.50;;;;;;;18.52;31.35;100026.81;6178927;23;20025;-83
2023/05/29 06:06:23;;;;;;;10.80;2.55;;;;;;;18.34;33.95;99994.97;6181721;23;20363;-83
2023/05/29 06:08:49;;;;;;;16.23;3.72;;;;;;;18.45;31.25;100006.41;6130582;23;20017;-92
2023/05/29 06:11:17;;;;;;;15.73;4.23;;;;;;;18.59;30.78;100028.97;6132871;23;20016;-85
2023/05/29 06:13:45;;;;;;;18.13;4.20;;;;;;;18.65;32.45;100022.03;6154587;23;20249;-89
2023/05/29 06:16:37;;;;;;;19.40;3.13;;;;;;;18.66;29.47;100029.19;6177096;23;20454;-85
2023/05/29 06:19:04;;;;;;;22.03;3.77;;;;;;;18.57;29.70;100031.28;6156127;23;20028;-84
2023/05/29 06:21:37;;;;;;;7.25;2.90;;;;;;;18.65;32.79;100029.56;6187577;23;20012;-86
2023/05/29 06:24:03;;;;;;;9.75;2.92;;;;;;;18.88;32.34;100027.91;6140573;23;20052;-85
2023/05/29 06:26:33;;;;;;;12.05;2.80;;;;;;;18.93;31.80;100030.41;6188218;23;20028;-86
2023/05/29 06:28:59;;;;;;;13.88;3.20;;;;;;;18.90;29.46;100031.09;6203241;23;20053;-87
2023/05/29 06:31:26;;;;;;;32.42;8.73;;;;;;;18.93;29.56;100033.19;6150900;23;20008;-86
2023/05/29 06:33:56;;;;;;;20.48;4.55;;;;;;;19.06;31.57;100035.91;6173301;23;20063;-89
2023/05/29 06:36:22;;;;;;;9.52;3.25;;;;;;;19.15;30.04;100042.13;6191931;23;20023;-85
2023/05/29 06:38:52;;;;;;;19.75;3.20;;;;;;;19.08;28.51;100037.19;6142364;23;20013;-87
2023/05/29 06:41:20;;;;;;;25.17;4.60;;;;;;;19.17;29.18;100035.06;6166993;23;20067;-85
2023/05/29 06:43:48;;;;;;;11.38;4.00;;;;;;;19.22;30.69;100036.78;6163369;23;20032;-87
2023/05/29 06:46:23;;;;;;;15.20;3.05;;;;;;;19.32;28.70;100054.88;6165875;23;20021;-85
2023/05/29 06:48:50;;;;;;;6.82;2.58;;;;;;;19.27;28.10;100044.84;6181156;23;20478;-90
2023/05/29 06:51:17;;;;;;;29.70;4.72;;;;;;;19.34;29.55;100050.59;6130914;23;20103;-89
2023/05/29 06:54:04;;;;;;;10.38;2.78;;;;;;;19.54;30.32;100036.84;6183688;23;20017;-89
2023/05/29 06:56:32;;;;;;;8.55;3.40;;;;;;;19.92;31.15;100045.38;6182542;23;20055;-88
2023/05/29 06:58:58;;;;;;;8.77;2.67;;;;;;;20.03;27.75;100042.88;6155512;23;20021;-85
2023/05/29 07:01:58;;;;;;;14.07;3.10;;;;;;;19.96;27.42;100042.69;6183931;23;20085;-87
2023/05/29 07:04:28;;;;;;;10.30;2.80;;;;;;;19.64;26.79;100016.94;6132598;23;20029;-85
2023/05/29 07:06:54;;;;;;;11.70;3.40;;;;;;;19.79;28.46;100041.09;6182276;23;20072;-84
2023/05/29 07:09:20;;;;;;;13.48;3.63;;;;;;;19.82;28.02;100034.03;6138100;23;20019;-85
2023/05/29 07:11:47;;;;;;;7.47;3.08;;;;;;;20.04;29.60;100035.38;6129503;23;20064;-83
2023/05/29 07:14:14;;;;;;;13.50;3.33;;;;;;;19.94;26.29;100045.84;6181587;23;20541;-84
2023/05/29 07:16:40;;;;;;;10.60;3.90;;;;;;;19.76;26.56;100044.56;6130167;23;20024;-84
2023/05/29 07:19:06;;;;;;;19.42;4.40;;;;;;;19.79;27.64;100040.28;6180634;23;20538;-91
2023/05/29 07:21:36;;;;;;;33.45;5.07;;;;;;;19.76;27.50;100033.47;6179982;23;20080;-86
2023/05/29 07:24:04;;;;;;;11.07;4.18;;;;;;;19.74;28.49;100033.03;6131784;23;20021;-88
2023/05/29 07:26:30;;;;;;;9.95;3.90;;;;;;;19.76;26.57;100030.72;6184682;23;20020;-86
2023/05/29 07:28:57;;;;;;;22.10;3.90;;;;;;;19.75;27.03;100014.44;6164033;23;20020;-87
2023/05/29 07:31:23;;;;;;;15.20;3.25;;;;;;;19.87;27.39;100047.66;6159490;23;20601;-87
2023/05/29 07:33:50;;;;;;;11.30;3.03;;;;;;;19.77;26.70;100034.28;6135709;23;20055;-88
2023/05/29 07:36:21;;;;;;;31.20;4.65;;;;;;;19.84;25.90;100051.13;6132150;23;20478;-88
2023/05/29 07:38:49;;;;;;;28.45;4.20;;;;;;;19.61;27.83;100015.66;6130797;23;20044;-86
2023/05/29 07:42:16;;;;;;;31.05;4.20;;;;;;;19.86;26.03;100040.47;6132425;23;20040;-86
2023/05/29 07:44:43;;;;;;;19.38;3.40;;;;;;;19.40;26.23;100002.03;6130788;23;20016;-88
2023/05/29 07:47:13;;;;;;;17.20;4.00;;;;;;;19.63;26.77;100043.84;6133348;23;20423;-86
2023/05/29 07:50:24;;;;;;;15.32;6.45;;;;;;;19.57;30.11;100002.81;6140396;23;20517;-86
2023/05/29 07:53:02;;;;;;;24.30;4.80;;;;;;;19.94;30.46;100007.00;6155437;23;20032;-86
2023/05/29 07:56:03;;;;;;;5.85;3.13;;;;;;;20.26;28.64;100051.38;6155072;23;20048;-86
2023/05/29 07:58:36;;;;;;;8.48;2.97;;;;;;;20.21;28.19;100025.88;6032374;23;20043;-87
2023/05/29 08:01:05;;;;;;;15.25;3.58;;;;;;;20.12;27.42;100006.63;5985612;23;20111;-86
2023/05/29 08:06:25;;;;;;;20.00;5.55;;;;;;;20.52;29.19;100036.13;6037528;23;20046;-85
2023/05/29 08:08:51;;;;;;;59.08;16.90;;;;;;;20.76;29.63;100038.66;6037139;23;20041;-84
2023/05/29 08:11:19;;;;;;;23.48;8.27;;;;;;;20.93;nan;100045.78;6061619;23;20015;-87
2023/05/29 08:13:46;;;;;;;29.77;4.40;;;;;;;20.92;28.17;100052.47;6014117;23;20022;-84
2023/05/29 08:16:14;;;;;;;17.42;3.65;;;;;;;20.63;27.89;100024.09;6037818;23;20046;-86
2023/05/29 08:18:40;;;;;;;10.57;3.42;;;;;;;20.83;27.64;100047.16;6015661;23;20027;-85
2023/05/29 08:21:06;;;;;;;6.93;2.93;;;;;;;20.76;27.60;100035.06;6014325;23;20023;-89
2023/05/29 08:23:33;;;;;;;17.13;3.70;;;;;;;20.44;26.51;100001.00;6017419;23;20330;-86
2023/05/29 08:26:02;;;;;;;30.63;5.03;;;;;;;20.57;27.90;100013.63;6065542;23;20138;-87
2023/05/29 08:28:28;;;;;;;26.90;6.40;;;;;;;20.62;27.59;100000.25;6044722;23;20351;-86
2023/05/29 08:30:54;;;;;;;19.45;3.80;;;;;;;20.79;27.66;100020.44;6010437;23;20089;-91
2023/05/29 08:33:21;;;;;;;12.45;3.60;;;;;;;20.55;27.47;100000.09;5987128;23;20023;-87
2023/05/29 08:35:47;;;;;;;12.82;3.38;;;;;;;20.72;27.19;100032.19;6034152;23;20019;-87
2023/05/29 08:38:25;;;;;;;13.77;3.85;;;;;;;20.62;27.85;100013.31;6015601;23;20588;-87
2023/05/29 08:41:00;;;;;;;12.98;3.40;;;;;;;20.84;27.81;100031.28;5985975;23;20016;-86
2023/05/29 08:43:31;;;;;;;5.68;3.08;;;;;;;20.67;26.22;100020.59;6071211;23;20077;-87
2023/05/29 08:46:02;;;;;;;14.90;3.75;;;;;;;20.68;28.01;100019.41;6128612;23;20028;-87
2023/05/29 08:48:30;;;;;;;23.95;7.65;;;;;;;20.87;29.27;100017.44;6101130;23;20367;-87
2023/05/29 08:50:57;;;;;;;19.65;10.65;;;;;;;21.30;27.83;100023.88;6150390;23;20017;-88
2023/05/29 08:53:25;;;;;;;12.93;4.38;;;;;;;21.42;27.83;100027.69;6154695;23;20018;-88
2023/05/29 08:55:57;;;;;;;8.85;4.90;;;;;;;21.25;29.17;99985.22;6082340;23;20138;-92
2023/05/29 08:58:26;;;;;;;27.75;4.57;;;;;;;21.24;27.75;100003.09;6154469;23;20028;-87
2023/05/29 09:00:52;;;;;;;17.65;3.60;;;;;;;21.25;26.71;100029.72;6082844;23;20082;-91
2023/05/29 09:03:19;;;;;;;41.67;5.82;;;;;;;21.21;27.01;100028.84;6153623;23;20024;-87
2023/05/29 09:05:46;;;;;;;12.25;3.42;;;;;;;20.94;25.84;99999.31;6131951;23;20052;-87
2023/05/29 09:08:17;;;;;;;17.17;4.07;;;;;;;20.64;26.22;99978.47;6131897;23;20017;-88
2023/05/29 09:10:45;;;;;;;11.65;3.28;;;;;;;20.88;27.86;99996.81;6107709;23;20013;-92
2023/05/29 09:13:13;;;;;;;10.40;3.47;;;;;;;21.25;25.93;100023.34;6132268;23;20017;-91
2023/05/29 09:15:42;;;;;;;18.75;4.15;;;;;;;21.12;27.20;99953.19;6107117;23;20455;-94
2023/05/29 09:19:19;;;;;;;8.55;3.67;;;;;;;21.49;24.71;100009.16;6147060;23;20001;-89
2023/05/29 09:21:49;;;;;;;9.38;3.72;;;;;;;21.42;28.11;99966.47;6159235;23;20653;-89
2023/05/29 09:24:36;;;;;;;16.20;4.20;;;;;;;21.61;26.59;99977.56;6155219;23;20089;-89
2023/05/29 09:27:05;;;;;;;7.28;3.10;;;;;;;21.66;26.09;100005.09;6154859;23;20031;-91
2023/05/29 09:33:49;;;;;;;15.93;3.67;;;;;;;21.66;25.77;100007.88;6159169;23;20211;-91
2023/05/29 09:36:22;;;;;;;28.42;4.00;;;;;;;21.36;27.95;99963.22;6156717;23;20098;-89
2023/05/29 09:38:48;;;;;;;9.48;3.35;;;;;;;21.73;27.96;100002.41;6135253;23;20024;-93
2023/05/29 09:41:26;;;;;;;;;;;;;;;21.89;27.67;99995.94;6160872;23;20049;-89
2023/05/29 09:43:54;;;;;;;9.77;3.42;;;;;;;21.94;26.93;99995.59;6116653;23;19916;-91
2023/05/29 09:46:21;;;;;;;8.18;3.75;;;;;;;21.79;28.81;99928.56;6096374;23;20096;-90
2023/05/29 09:49:51;;;;;;;10.68;3.42;;;;;;;22.20;27.44;99984.50;6147446;23;20017;-91
2023/05/29 09:52:22;;;;;;;15.23;4.20;;;;;;;22.13;26.96;99978.00;6150918;23;20095;-91
2023/05/29 09:54:59;;;;;;;11.88;3.90;;;;;;;21.95;25.43;99983.28;6118994;23;20025;-92
2023/05/29 09:57:27;;;;;;;14.98;4.97;;;;;;;21.92;26.10;99990.41;6132146;23;20014;-89
2023/05/29 09:59:55;;;;;;;20.20;4.13;;;;;;;22.02;28.04;99977.84;6133054;23;20024;-93
2023/05/29 10:02:22;;;;;;;9.23;4.03;;;;;;;22.22;26.73;99971.00;6136653;23;20013;-91
2023/05/29 10:04:50;;;;;;;9.98;3.33;;;;;;;21.96;25.46;99946.72;6086127;23;20025;-93
2023/05/29 10:07:40;;;;;;;18.17;3.55;;;;;;;22.17;26.93;99960.19;6156988;23;20021;-92
2023/05/29 10:10:20;;;;;;;17.67;4.38;;;;;;;22.38;26.56;99956.09;6158111;23;20018;-91
2023/05/29 10:13:21;;;;;;;11.45;3.78;;;;;;;22.78;26.46;99972.16;6171795;23;20155;-89
2023/05/29 10:15:51;;;;;;;12.52;3.78;;;;;;;22.48;26.00;99939.53;6158147;23;20017;-90
2023/05/29 10:18:39;;;;;;;16.55;3.88;;;;;;;22.57;26.54;99969.09;6164290;23;20017;-92
2023/05/29 10:21:10;;;;;;;22.55;3.95;;;;;;;22.74;27.21;99968.50;6117728;23;20025;-96
2023/05/29 10:23:58;;;;;;;23.58;7.75;;;;;;;22.67;25.94;99965.63;6152915;23;20022;-95
2023/05/29 10:26:43;;;;;;;;;;;;;;;22.64;26.48;99971.97;6172030;23;20018;-92
2023/05/29 10:29:53;;;;;;;9.75;4.40;;;;;;;22.94;27.85;99958.81;6172148;23;19912;-94
2023/05/29 10:32:44;;;;;;;8.15;3.40;;;;;;;22.95;26.01;99965.22;6170857;23;20025;-95
2023/05/29 10:35:42;;;;;;;7.55;3.53;;;;;;;23.03;26.46;99961.31;6147980;23;20029;-87
2023/05/29 10:38:15;;;;;;;18.90;3.90;;;;;;;23.43;27.26;99963.31;6165142;23;20100;-93
2023/05/29 10:41:29;;;;;;;11.07;3.65;;;;;;;23.13;25.37;99957.03;6168644;23;20033;-88
2023/05/29 10:44:02;;;;;;;8.48;3.92;;;;;;;23.28;27.40;99939.28;6135279;23;20011;-88
2023/05/29 10:46:48;;;;;;;17.77;4.15;;;;;;;23.66;27.18;99956.75;6169196;23;20025;-92
2023/05/29 10:52:33;;;;;;;13.68;4.95;;;;;;;23.34;26.14;99943.28;6160861;23;20444;-92
2023/05/29 10:55:19;;;;;;;9.50;3.95;;;;;;;23.26;26.00;99896.19;6168598;23;20025;-87
2023/05/29 10:57:56;;;;;;;8.00;3.50;;;;;;;23.32;24.71;99940.09;6142073;23;20444;-86
2023/05/29 11:00:25;;;;;;;14.80;4.20;;;;;;;23.33;26.20;99922.16;6165961;23;20096;-95
2023/05/29 11:03:12;;;;;;;29.52;5.78;;;;;;;23.56;26.19;99933.13;6168346;23;20017;-95
2023/05/29 11:06:05;;;;;;;16.80;4.72;;;;;;;23.82;26.66;99946.13;6169721;23;20025;-95
2023/05/29 11:08:42;;;;;;;26.27;6.97;;;;;;;23.89;26.39;99915.47;6172008;23;20023;-95
2023/05/29 11:11:41;;;;;;;28.42;10.35;;;;;;;24.17;25.08;99921.63;6165406;23;20064;-94
2023/05/29 11:14:10;;;;;;;24.05;8.57;;;;;;;24.09;26.00;99913.19;6166435;23;19997;-88
2023/05/29 11:16:38;;;;;;;17.17;5.85;;;;;;;24.11;25.73;99919.22;6171611;23;20017;-92
2023/05/29 11:19:14;;;;;;;14.45;5.45;;;;;;;23.97;25.12;99885.59;6168238;23;20021;-93
2023/05/29 11:22:25;;;;;;;19.17;6.13;;;;;;;24.11;24.71;99905.25;6168079;23;20021;-94
2023/05/29 11:24:54;;;;;;;60.75;5.47;;;;;;;24.17;22.96;99930.00;6162856;23;20040;-92
2023/05/29 11:27:20;;;;;;;27.23;5.13;;;;;;;24.21;25.14;99928.84;6137955;23;20584;-92
2023/05/29 11:29:48;;;;;;;7.93;3.70;;;;;;;24.19;22.59;99916.44;6171943;23;19997;-93
2023/05/29 11:32:16;;;;;;;11.90;3.70;;;;;;;24.21;25.21;99902.91;6119975;23;20116;-89
2023/05/29 11:38:17;;;;;;;9.68;4.03;;;;;;;24.11;22.44;99880.09;6162023;23;20352;-93
2023/05/29 11:41:09;;;;;;;18.25;4.13;;;;;;;24.30;22.14;99908.91;6133049;23;20021;-88
2023/05/29 11:44:01;;;;;;;8.55;3.65;;;;;;;24.22;22.84;99910.88;6162011;23;20024;-93
2023/05/29 11:46:32;;;;;;;10.35;3.55;;;;;;;23.73;21.22;99866.69;6129411;23;20018;-89
2023/05/29 11:53:01;;;;;;;26.20;4.60;;;;;;;24.24;21.07;99897.34;6126527;23;20040;-90
2023/05/29 11:55:28;;;;;;;27.13;4.47;;;;;;;24.36;23.47;99891.38;6121751;23;20018;-88
2023/05/29 11:58:02;;;;;;;14.05;3.95;;;;;;;24.57;23.29;99906.69;6056531;23;20022;-92
2023/05/29 12:00:50;;;;;;;15.00;3.80;;;;;;;24.26;22.03;99888.53;6127596;23;20024;-87
2023/05/29 12:03:17;;;;;;;14.95;4.00;;;;;;;24.09;23.01;99876.88;6102870;23;20014;-92
2023/05/29 12:05:52;;;;;;;42.33;5.47;;;;;;;24.23;23.50;99892.91;6103076;23;20415;-88
2023/05/29 12:08:24;;;;;;;42.92;6.00;;;;;;;24.43;23.73;99890.66;6126628;23;20080;-88
2023/05/29 12:10:51;;;;;;;31.83;4.82;;;;;;;24.48;22.97;99886.69;6151702;23;20030;-93
2023/05/29 12:13:21;;;;;;;14.80;4.53;;;;;;;24.58;24.49;99855.97;6160753;23;20049;-91
2023/05/29 12:15:53;;;;;;;17.50;4.72;;;;;;;24.83;22.96;99886.81;6157701;23;20028;-93
2023/05/29 12:18:23;;;;;;;11.90;4.13;;;;;;;24.75;23.32;99879.59;6157714;23;20025;-87
2023/05/29 12:21:15;;;;;;;9.23;3.95;;;;;;;24.76;24.97;99889.56;6157316;23;20036;-88
2023/05/29 12:23:54;;;;;;;16.02;6.28;;;;;;;24.73;23.46;99853.22;6157815;23;20032;-90
2023/05/29 12:26:27;;;;;;;25.85;4.43;;;;;;;25.01;24.87;99869.25;6159962;23;20077;-90
2023/05/29 12:28:55;;;;;;;9.75;4.57;;;;;;;25.05;23.90;99848.47;6107801;23;20524;-87
2023/05/29 12:31:29;;;;;;;17.15;5.53;;;;;;;25.37;23.71;99866.53;6159395;23;20045;-88
2023/05/29 12:34:22;;;;;;;24.27;5.55;;;;;;;25.39;22.64;99859.31;6109057;23;20025;-88
2023/05/29 12:36:48;;;;;;;27.73;5.10;;;;;;;25.15;22.46;99863.69;6132060;23;20013;-93
2023/05/29 12:39:14;;;;;;;12.20;4.75;;;;;;;25.16;23.71;99864.50;6133020;23;20022;-92
2023/05/29 12:41:41;;;;;;;15.45;5.47;;;;;;;25.43;24.29;99870.50;6139237;23;20017;-90
2023/05/29 12:44:08;;;;;;;16.38;4.70;;;;;;;25.62;23.47;99856.09;6112391;23;20048;-92
2023/05/29 12:46:44;;;;;;;9.20;4.15;;;;;;;25.57;22.11;99869.72;6160709;23;20531;-88
2023/05/29 12:49:30;;;;;;;;;;;;;;;;;;;;;
2023/05/29 12:52:43;;;;;;;27.90;4.95;;;;;;;25.00;23.63;99834.06;6165285;23;20116;-94
2023/05/29 12:55:11;;;;;;;20.75;5.53;;;;;;;25.17;23.70;99807.34;6142486;23;20025;-94
2023/05/29 12:57:56;;;;;;;13.88;4.80;;;;;;;25.70;23.66;99859.69;6173483;22;20022;-91
2023/05/29 13:01:03;;;;;;;31.75;6.18;;;;;;;25.50;22.95;99820.91;6156229;23;20028;-90
2023/05/29 13:04:35;;;;;;;16.33;4.72;;;;;;;25.71;23.30;99867.69;6126397;23;20021;-89
2023/05/29 13:10:19;;;;;;;9.90;4.38;;;;;;;25.47;21.75;99857.31;6212916;23;20025;-88
2023/05/29 13:16:26;;;;;;;17.40;5.90;;;;;;;25.69;22.73;99841.28;6194422;23;20050;-90
2023/05/29 13:19:35;;;;;;;32.17;5.18;;;;;;;25.75;19.75;99842.47;6170621;23;20036;-88
2023/05/29 13:22:16;;;;;;;11.45;4.18;;;;;;;25.46;20.28;99825.72;6213414;23;20091;-88
2023/05/29 13:25:33;;;;;;;28.55;4.65;;;;;;;25.14;20.53;99862.09;6215316;23;20024;-92
2023/05/29 13:27:58;;;;;;;20.38;7.95;;;;;;;24.98;22.88;99817.69;6190161;23;20454;-88
2023/05/29 13:30:41;;;;;;;10.20;4.07;;;;;;;25.16;21.24;99850.50;6111838;23;20017;-87
2023/05/29 13:36:03;;;;;;;18.38;5.10;;;;;;;25.48;22.91;99856.09;6080007;23;20082;-90
2023/05/29 13:38:29;;;;;;;21.02;6.05;;;;;;;25.42;22.84;99846.50;6078769;23;20028;-92
2023/05/29 13:40:55;;;;;;;26.42;5.32;;;;;;;25.54;22.46;99854.50;6110485;23;20018;-90
2023/05/29 13:43:26;;;;;;;16.42;6.93;;;;;;;25.35;21.72;99838.91;6113929;23;20066;-90
2023/05/29 13:45:53;;;;;;;31.33;6.03;;;;;;;25.16;20.07;99828.91;6110215;23;20039;-91
2023/05/29 13:49:11;;;;;;;14.25;6.18;;;;;;;25.00;21.85;99818.09;6133699;23;20206;-89
2023/05/29 13:52:03;;;;;;;18.35;5.50;;;;;;;25.45;20.90;99854.91;6087408;23;20345;-87
2023/05/29 13:54:35;;;;;;;22.08;5.22;;;;;;;25.43;21.10;99865.72;6087135;23;20053;-87
2023/05/29 13:57:08;;;;;;;22.73;6.22;;;;;;;25.43;21.55;99868.53;6058919;23;20048;-91
2023/05/29 13:59:35;;;;;;;9.60;4.40;;;;;;;25.42;21.98;99855.69;6131734;23;20045;-89
2023/05/29 14:02:08;;;;;;;16.90;4.80;;;;;;;25.16;21.28;99842.09;6102616;23;20408;-87
2023/05/29 14:04:36;;;;;;;11.38;5.00;;;;;;;25.23;21.45;99856.94;6125999;23;20021;-88
2023/05/29 14:07:48;;;;;;;30.52;6.80;;;;;;;25.14;22.81;99819.34;6041835;23;20051;-90
2023/05/29 14:10:21;;;;;;;32.67;8.57;;;;;;;25.25;23.54;99822.94;6049186;23;20087;-91
2023/05/29 14:13:03;;;;;;;12.50;5.57;;;;;;;25.09;22.39;99817.69;5997140;23;20023;-88
2023/05/29 14:15:35;;;;;;;13.90;4.45;;;;;;;25.12;22.20;99824.53;6109126;23;20053;-90
2023/05/29 14:21:32;;;;;;;54.13;13.98;;;;;;;25.24;23.12;99810.16;6114347;23;20010;-87
2023/05/29 14:24:01;;;;;;;19.05;5.10;;;;;;;25.37;22.14;99846.94;6112612;23;20021;-92
2023/05/29 14:30:12;;;;;;;22.42;5.78;;;;;;;25.71;21.14;99852.88;6146824;23;20040;-88
2023/05/29 14:33:05;;;;;;;21.83;5.82;;;;;;;25.67;21.44;99840.91;6142816;23;20028;-89
2023/05/29 14:35:46;;;;;;;54.30;7.72;;;;;;;25.41;21.35;99823.31;6121470;23;20017;-89
2023/05/29 14:38:12;;;;;;;15.52;5.57;;;;;;;25.44;22.76;99850.50;6168123;23;20139;-90
2023/05/29 14:40:53;;;;;;;22.77;5.68;;;;;;;25.61;22.83;99850.91;6186955;23;20039;-90
2023/05/29 14:43:19;;;;;;;15.07;5.22;;;;;;;25.26;23.20;99793.75;6145777;23;20045;-89